Flight Track Log - Related Links

Times and Time Zones

All times are in EDT time to prevent confusion due to time zone crossing. See the DAL635 flight status page for this flight to view local times or setup timezone preferences in your user account.

Time Position Orientation Groundspeed Altitude Reporting Facility
EDT Latitude Longitude Course Direction KTS MPH feet Rate Location/Type
Tue 12:31:28 AM 40.7561 -111.9964 180° South 196 226 5,700  Level Salt Lake Center
Tue 12:32:26 AM 40.7044 -111.9847 170° South 203 234 7,000 1,815 Climbing Salt Lake Center
Tue 12:33:27 AM 40.6347 -111.9767 175° South 248 285 9,300 2,293 Climbing Salt Lake Center
Tue 12:34:00 AM 40.4816 -111.9515 176° South  Level FlightAware Approximate
Tue 12:34:29 AM 40.5628 -111.9675 174° South 259 298 11,700  Level Salt Lake Center
Tue 12:35:00 AM 40.3825 -111.9333 180° South  Level FlightAware Approximate
Tue 12:35:30 AM 40.4833 -111.9569 174° South 292 336 13,400  Level Salt Lake Center
Tue 12:36:00 AM 40.2817 -111.9333 180° South  Level FlightAware Approximate
Tue 12:36:31 AM 40.3833 -111.9481 176° South 374 430 14,400  Level Salt Lake Center
Tue 12:37:33 AM 40.2525 -111.9406 177° South 392 451 17,500 2,244 Climbing Salt Lake Center
Tue 12:38:34 AM 40.1411 -111.9603 188° South 408 470 19,000 1,770 Climbing Salt Lake Center
Tue 12:39:35 AM 40.0250 -111.9775 186° South 418 481 21,100 1,918 Climbing Salt Lake Center
Tue 12:40:36 AM 39.9089 -111.9936 186° South 420 483 22,900 1,463 Climbing Salt Lake Center
Tue 12:41:38 AM 39.7878 -112.0117 187° South 437 503 24,100 1,171 Climbing Salt Lake Center
Tue 12:42:39 AM 39.6614 -112.0300 186° South 455 524 25,300 1,475 Climbing Salt Lake Center
Tue 12:43:40 AM 39.5336 -112.0483 186° South 460 529 27,100 1,707 Climbing Salt Lake Center
Tue 12:44:42 AM 39.4078 -112.0650 186° South 455 524 28,800 1,610 Climbing Salt Lake Center
Tue 12:45:43 AM 39.2828 -112.0831 186° South 455 524 30,400 1,574 Climbing Salt Lake Center
Tue 12:46:44 AM 39.1622 -112.1108 190° South 435 501 32,000 780 Climbing Salt Lake Center
Tue 12:47:46 AM 39.0642 -112.1975 214° Southwest 428 493 32,000  Level Salt Lake Center
Tue 12:48:47 AM 38.9503 -112.3017 215° Southwest 423 487 32,000  Level Salt Lake Center
Tue 12:49:48 AM 38.8558 -112.3878 215° Southwest 420 483 32,000  Level Salt Lake Center
Tue 12:50:50 AM 38.7617 -112.4756 216° Southwest 420 483 32,000  Level Salt Lake Center
Tue 12:51:51 AM 38.6664 -112.5608 215° Southwest 420 483 32,000  Level Salt Lake Center
Tue 12:52:52 AM 38.5703 -112.6467 215° Southwest 420 483 32,000  Level Salt Lake Center
Tue 12:53:53 AM 38.4744 -112.7336 215° Southwest 420 483 32,000  Level Salt Lake Center
Tue 12:54:55 AM 38.3797 -112.8183 215° Southwest 420 483 32,000  Level Salt Lake Center
Tue 12:55:56 AM 38.2850 -112.9044 216° Southwest 420 483 32,000  Level Salt Lake Center
Tue 12:56:57 AM 38.1717 -113.0050 215° Southwest 419 482 32,000  Level Salt Lake Center
Tue 12:57:58 AM 38.0747 -113.0892 214° Southwest 420 483 32,000  Level Salt Lake Center
Tue 12:59:00 AM 37.9786 -113.1747 215° Southwest 423 487 32,000  Level Salt Lake Center
Tue 01:00:01 AM 37.8833 -113.2592 215° Southwest 422 486 32,000  Level Salt Lake Center
Tue 01:01:02 AM 37.7861 -113.3428 214° Southwest 423 487 32,000  Level Salt Lake Center
Tue 01:02:03 AM 37.6886 -113.4269 214° Southwest 425 489 32,000  Level Salt Lake Center
Tue 01:03:04 AM 37.5925 -113.5108 215° Southwest 425 489 32,000  Level Salt Lake Center
Tue 01:04:05 AM 37.4964 -113.5950 215° Southwest 425 489 32,000  Level Salt Lake Center
Tue 01:05:03 AM 37.3986 -113.6772 214° Southwest 426 490 32,000  Level Los Angeles Center
Tue 01:06:04 AM 37.3017 -113.7603 214° Southwest 424 488 32,000  Level Los Angeles Center
Tue 01:07:05 AM 37.2058 -113.8439 215° Southwest 424 488 32,000  Level Los Angeles Center
Tue 01:08:07 AM 37.1053 -113.9283 214° Southwest 424 488 32,000  Level Los Angeles Center
Tue 01:09:08 AM 36.9894 -114.0264 214° Southwest 421 484 32,000  Level Los Angeles Center
Tue 01:10:10 AM 36.8906 -114.1108 214° Southwest 428 493 32,000  Level Los Angeles Center
Tue 01:11:11 AM 36.7933 -114.1956 215° Southwest 428 493 32,000  Level Los Angeles Center
Tue 01:12:13 AM 36.6944 -114.2781 214° Southwest 427 491 32,000  Level Los Angeles Center
Tue 01:13:14 AM 36.5950 -114.3617 214° Southwest 427 491 32,000  Level Los Angeles Center
Tue 01:14:16 AM 36.4981 -114.4439 214° Southwest 427 491 32,000  Level Los Angeles Center
Tue 01:15:17 AM 36.3981 -114.5272 214° Southwest 428 493 32,000  Level Los Angeles Center
Tue 01:16:18 AM 36.3000 -114.6092 214° Southwest 428 493 32,000  Level Los Angeles Center
Tue 01:17:20 AM 36.2019 -114.6911 214° Southwest 427 491 32,000  Level Los Angeles Center
Tue 01:18:21 AM 36.1025 -114.7744 214° Southwest 427 491 32,000  Level Los Angeles Center
Tue 01:19:23 AM 35.9856 -114.8753 215° Southwest 426 490 32,000  Level Los Angeles Center
Tue 01:20:24 AM 35.9053 -114.9853 228° Southwest 428 493 32,000  Level Los Angeles Center
Tue 01:21:25 AM 35.8244 -115.0939 227° Southwest 428 493 32,000  Level Los Angeles Center
Tue 01:22:27 AM 35.7444 -115.2031 228° Southwest 428 493 32,000  Level Los Angeles Center
Tue 01:23:28 AM 35.6642 -115.3139 228° Southwest 429 494 32,000  Level Los Angeles Center
Tue 01:24:29 AM 35.5825 -115.4206 227° Southwest 429 494 32,000  Level Los Angeles Center
Tue 01:25:30 AM 35.4964 -115.5219 224° Southwest 429 494 32,000  Level Los Angeles Center
Tue 01:26:32 AM 35.4081 -115.6244 223° Southwest 428 493 32,000  Level Los Angeles Center
Tue 01:27:33 AM 35.3231 -115.7239 224° Southwest 427 491 32,000  Level Los Angeles Center
Tue 01:28:34 AM 35.2372 -115.8231 223° Southwest 424 488 32,000  Level Los Angeles Center
Tue 01:29:35 AM 35.1517 -115.9219 223° Southwest 423 487 32,000  Level Los Angeles Center
Tue 01:30:36 AM 35.0672 -116.0203 224° Southwest 422 486 32,000  Level Los Angeles Center
Tue 01:31:38 AM 34.9806 -116.1183 223° Southwest 423 487 32,000  Level Los Angeles Center
Tue 01:32:39 AM 34.8953 -116.2169 223° Southwest 424 488 32,000  Level Los Angeles Center
Tue 01:33:40 AM 34.8097 -116.3144 223° Southwest 424 488 32,000  Level Los Angeles Center
Tue 01:34:41 AM 34.7236 -116.4142 224° Southwest 424 488 32,000 -344 Level Los Angeles Center
Tue 01:35:42 AM 34.6192 -116.5308 223° Southwest 424 488 31,300 -934 Descending Los Angeles Center
Tue 01:36:43 AM 34.5322 -116.6314 224° Southwest 426 490 30,100 -1,623 Descending Los Angeles Center
Tue 01:37:44 AM 34.4414 -116.7325 223° Southwest 438 504 28,000 -2,585 Descending Los Angeles Center
Tue 01:38:46 AM 34.3492 -116.8367 223° Southwest 448 516 24,800 -2,976 Descending Los Angeles Center
Tue 01:39:47 AM 34.2589 -116.9381 223° Southwest 444 511 21,900 -2,508 Descending Los Angeles Center
Tue 01:40:48 AM 34.1731 -117.0331 222° Southwest 422 486 19,700 -1,623 Descending Los Angeles Center
Tue 01:41:49 AM 34.0986 -117.1283 227° Southwest 364 419 18,600 -1,546 Descending Los Angeles Center
Tue 01:42:25 AM 34.0667 -117.2000 242° Southwest 355 409 17,200 -2,188 Descending Southern California TRACON
Tue 01:43:25 AM 34.0333 -117.3167 251° West 355 409 15,100 -1,967 Descending Southern California TRACON
Tue 01:45:25 AM 34.0167 -117.5333 265° West 335 386 11,300 -1,600 Descending Southern California TRACON
Tue 01:46:25 AM 34.0167 -117.6500 270° West 366 421 10,300 -947 Descending Southern California TRACON
Tue 01:47:19 AM 34.0000 -117.7333 256° West 278 320 9,500 -1,158 Descending Southern California TRACON
Tue 01:48:19 AM 34.0000 -117.8333 270° West 284 327 8,100 -1,350 Descending Southern California TRACON
Tue 01:49:19 AM 33.9833 -117.9167 256° West 281 323 6,800 -1,158 Descending Southern California TRACON
Tue 01:50:13 AM 33.9833 -118.0000 270° West 268 308 5,900 -1,000 Descending Southern California TRACON
Tue 01:51:13 AM 33.9667 -118.0833 256° West 257 296 4,900 -1,019 Descending Southern California TRACON
Tue 01:51:59 AM 33.9622 -118.1422 265° West 260 299 4,100 -1,178 Descending Los Angeles Center
Tue 01:53:00 AM 33.9544 -118.2172 263° West 238 274 2,800 -1,131 Descending Los Angeles Center
Tue 01:54:01 AM 33.9492 -118.2778 264° West 196 226 1,800 -984 Descending Los Angeles Center
Tue 01:55:02 AM 33.9422 -118.3414 263° West 173 199 800 -836 Descending Los Angeles Center
Tue 01:56:03 AM 33.9450 -118.3908 274° West 183 211 100 -689 Descending Los Angeles Center

Login

Don't have an account? Register now (free) for customized features, flight alerts, and more!